aviador You're here:

EYPA Decoded Metar

PALANGA INTL in LITHUANIA
Report Time2017-11-20 12:50:00
UTC Time2017-11-20 13:20:50
Flight Rules mvfr MVFR
Wind020° at 03 kt
W.Decomp.*RWY 01: 3.0 kt HW 0.3 kt RCW
W.Rank020° ranks 36
Current wind is below 020° avg. (5.3)
Visibility9999 m
Phenomena:N/A
Clouds:Broken 026 Hf
Expected CloudBase > 800 ft AGL from Temp-Dew spread
Ceiling2,600 ft
Temp03°C (ISA -12)
Dew Point01°C (87% RH)
AAT0.1°C
QNH1005 hPa
Density Alt-1,053 ft
Elevation33 ft
Report Wrong Elevation
Raw Report
EYPA 201250Z 02003KT 9999 BKN026 03/01 Q1005 R01/2///95=

Extra information for EYPA:More info

Metar Taf Metar & Taf Last 4 Metars F.Rules Stats Wind Profile Meteogram Temp Stats Airport Information Weather charts Add Link Nearby VenuesMetar ALERT Operation Metar Decoded Social comments